Allenhurst, Georgia
Current Conditions -  °F | °C
As of 4:58 AM on Sunday 25 Jan 2015 (Local Time) from KLHW Reporting Station
Clear Clear  
Wind Chill: 33°   Ceiling: Unl
Heat Index: 37°   Visibility: 10mi
Dew Point: 32°   Wind: 5mph
Humidity: 81%   Direction: 240°WSW
Pressure: 30"   Gusts: NA
Location:  31.78°N, 81.61°W
Report Text: KLHW 250958Z AUTO 24004KT 10SM CLR 03/00 A3000 RMK AO2 SLP162 T00281002
Loading
Personal Weather Stations






























Interactive Weather Map New forecast layout! Learn more

10-Day Weather Forecast

Advertisements
Track Severe Weather on mobile